Time;durP1;ratioP1;P1;durP2;ratioP2;P2;SDS_P1;SDS_P2;PMS_P1;PMS_P2;Temp;Humidity;BMP_temperature;BMP_pressure;BME280_temperature;BME280_humidity;BME280_pressure;Samples;Min_cycle;Max_cycle;Signal;HPM_P1;HPM_P2
2023/01/07 00:01:15;;;;;;;84.03;31.52;;;9.50;99.90;;;;;;5026350;28;20048;-75
2023/01/07 00:03:41;;;;;;;75.03;31.33;;;9.60;99.90;;;;;;5028171;28;20247;-75
2023/01/07 00:06:10;;;;;;;86.90;31.15;;;9.60;99.90;;;;;;5030648;28;20041;-75
2023/01/07 00:08:43;;;;;;;78.63;30.70;;;9.50;99.90;;;;;;5030374;28;20051;-76
2023/01/07 00:11:12;;;;;;;74.63;29.58;;;9.50;99.90;;;;;;5022825;28;20072;-74
2023/01/07 00:13:38;;;;;;;65.82;27.38;;;9.60;99.90;;;;;;5012441;28;20400;-74
2023/01/07 00:16:07;;;;;;;64.47;25.33;;;9.60;99.90;;;;;;5029438;28;20069;-75
2023/01/07 00:18:34;;;;;;;58.22;23.90;;;9.60;99.90;;;;;;5030692;28;20797;-75
2023/01/07 00:21:02;;;;;;;62.95;24.20;;;9.60;99.90;;;;;;5027958;28;20072;-75
2023/01/07 00:23:30;;;;;;;63.45;23.90;;;9.60;99.90;;;;;;5029843;28;20044;-75
2023/01/07 00:26:07;;;;;;;63.05;23.15;;;9.70;99.90;;;;;;5028392;28;20049;-75
2023/01/07 00:28:34;;;;;;;59.85;22.80;;;9.70;99.90;;;;;;5031091;28;20481;-74
2023/01/07 00:31:01;;;;;;;65.75;24.60;;;9.60;99.90;;;;;;5029384;28;20049;-75
2023/01/07 00:33:29;;;;;;;60.00;23.45;;;9.70;99.90;;;;;;5027337;28;20044;-75
2023/01/07 00:36:07;;;;;;;68.13;24.45;;;9.70;99.90;;;;;;5028599;28;20143;-74
2023/01/07 00:38:33;;;;;;;69.28;25.30;;;9.60;99.90;;;;;;5030516;28;20352;-74
2023/01/07 00:40:58;;;;;;;63.83;23.92;;;9.70;99.90;;;;;;5021229;28;20485;-75
2023/01/07 00:43:24;;;;;;;59.63;24.55;;;9.70;99.90;;;;;;5022718;28;20053;-75
2023/01/07 00:45:50;;;;;;;64.72;24.75;;;9.70;99.90;;;;;;5027298;28;20519;-74
2023/01/07 00:48:17;;;;;;;65.40;25.73;;;9.80;99.90;;;;;;5025400;28;20045;-75
2023/01/07 00:50:43;;;;;;;57.10;25.13;;;9.80;99.90;;;;;;5024822;28;20128;-75
2023/01/07 00:53:10;;;;;;;55.20;23.30;;;9.70;99.90;;;;;;5025443;28;20531;-75
2023/01/07 00:55:36;;;;;;;66.43;25.98;;;9.70;99.90;;;;;;5032183;28;20131;-75
2023/01/07 00:58:03;;;;;;;61.35;26.05;;;9.80;99.90;;;;;;5032636;28;20175;-74
2023/01/07 01:00:28;;;;;;;61.10;26.60;;;9.70;99.90;;;;;;5021865;28;20090;-74
2023/01/07 01:02:54;;;;;;;67.93;28.13;;;9.80;99.90;;;;;;5024551;28;20446;-74
2023/01/07 01:05:21;;;;;;;72.68;28.25;;;9.70;99.90;;;;;;5023297;28;20077;-74
2023/01/07 01:07:47;;;;;;;62.22;27.58;;;9.70;99.90;;;;;;5024859;28;20367;-75
2023/01/07 01:10:16;;;;;;;65.25;29.35;;;9.80;99.90;;;;;;5025347;28;20042;-75
2023/01/07 01:12:45;;;;;;;62.33;28.92;;;9.90;99.90;;;;;;5026649;28;20428;-74
2023/01/07 01:15:15;;;;;;;73.05;30.70;;;9.90;99.90;;;;;;5031184;28;20043;-75
2023/01/07 01:17:41;;;;;;;75.07;31.38;;;9.80;99.90;;;;;;5033271;28;20131;-73
2023/01/07 01:20:11;;;;;;;76.50;31.63;;;9.90;99.90;;;;;;5031314;28;20044;-73
2023/01/07 01:22:37;;;;;;;66.93;30.35;;;9.90;99.90;;;;;;5030766;28;20087;-74
2023/01/07 01:25:03;;;;;;;65.70;31.05;;;9.80;99.90;;;;;;5030081;28;20493;-74
2023/01/07 01:27:30;;;;;;;66.60;30.90;;;9.90;99.90;;;;;;5034833;28;20487;-74
2023/01/07 01:29:56;;;;;;;76.25;32.88;;;9.90;99.90;;;;;;5033296;28;20049;-74
2023/01/07 01:32:22;;;;;;;57.40;30.20;;;9.80;99.90;;;;;;5032043;28;20067;-74
2023/01/07 01:34:48;;;;;;;62.80;32.22;;;9.90;99.90;;;;;;5033347;28;20504;-74
2023/01/07 01:37:14;;;;;;;61.33;30.42;;;9.80;99.90;;;;;;5032050;28;20053;-75
2023/01/07 01:39:39;;;;;;;59.45;31.55;;;9.90;99.90;;;;;;5035889;28;20114;-74
2023/01/07 01:42:05;;;;;;;52.85;29.05;;;10.00;99.90;;;;;;5031950;28;20128;-74
2023/01/07 01:44:39;;;;;;;55.72;29.83;;;9.90;99.90;;;;;;5032396;28;20043;-73
2023/01/07 01:47:26;;;;;;;55.42;30.33;;;10.00;99.90;;;;;;5030404;28;20045;-74
2023/01/07 01:50:11;;;;;;;54.72;30.65;;;9.90;99.90;;;;;;5034102;28;20218;-74
2023/01/07 01:53:05;;;;;;;51.95;29.95;;;9.90;99.90;;;;;;5027964;28;20037;-74
2023/01/07 01:55:35;;;;;;;48.15;29.35;;;9.90;99.90;;;;;;5026520;28;20526;-74
2023/01/07 01:58:10;;;;;;;49.83;29.80;;;10.00;99.90;;;;;;5035452;28;20052;-74
2023/01/07 02:00:36;;;;;;;45.35;29.25;;;9.90;99.90;;;;;;5027564;28;20484;-75
2023/01/07 02:03:05;;;;;;;41.63;25.92;;;9.90;99.90;;;;;;5029615;28;20060;-75
2023/01/07 02:05:33;;;;;;;49.15;29.15;;;9.90;99.90;;;;;;5029828;28;20076;-74
2023/01/07 02:07:59;;;;;;;49.63;29.27;;;9.90;99.90;;;;;;5035982;28;20136;-74
2023/01/07 02:10:27;;;;;;;52.97;29.25;;;9.90;99.90;;;;;;5030057;28;20052;-75
2023/01/07 02:12:52;;;;;;;47.13;28.55;;;9.90;99.90;;;;;;5028052;28;20053;-74
2023/01/07 02:15:31;;;;;;;47.00;28.05;;;9.90;99.90;;;;;;5032776;28;20048;-75
2023/01/07 02:18:28;;;;;;;47.15;29.02;;;9.80;99.90;;;;;;5032219;28;20045;-75
2023/01/07 02:21:19;;;;;;;44.00;28.35;;;9.80;99.90;;;;;;5034129;28;20110;-74
2023/01/07 02:24:22;;;;;;;44.88;27.63;;;9.90;99.90;;;;;;5030627;28;20099;-75
2023/01/07 02:27:02;;;;;;;42.28;27.10;;;10.00;99.90;;;;;;5037084;28;20044;-75
2023/01/07 02:29:45;;;;;;;42.08;26.67;;;9.90;99.90;;;;;;5033324;28;20508;-75
2023/01/07 02:32:11;;;;;;;;;;;9.90;99.90;;;;;;5031367;28;20053;-75
2023/01/07 02:35:02;;;;;;;42.85;27.55;;;9.90;99.90;;;;;;5031397;28;20271;-75
2023/01/07 02:37:42;;;;;;;40.80;26.75;;;9.90;99.90;;;;;;5029646;28;20049;-75
2023/01/07 02:40:13;;;;;;;40.90;27.00;;;9.90;99.90;;;;;;5031234;28;20094;-74
2023/01/07 02:42:51;;;;;;;39.50;25.58;;;9.80;99.90;;;;;;5032225;28;20052;-76
2023/01/07 02:45:34;;;;;;;38.10;25.13;;;9.90;99.90;;;;;;5024740;28;20060;-76
2023/01/07 02:48:07;;;;;;;;;;;9.80;99.90;;;;;;5031151;28;20599;-76
2023/01/07 02:50:33;;;;;;;41.25;25.40;;;9.90;99.90;;;;;;5032945;28;19960;-75
2023/01/07 02:52:59;;;;;;;38.22;24.75;;;9.80;99.90;;;;;;5032318;28;20064;-76
2023/01/07 02:55:45;;;;;;;34.50;24.15;;;9.80;99.90;;;;;;5030936;28;20491;-75
2023/01/07 02:58:32;;;;;;;33.88;22.73;;;9.90;99.90;;;;;;5036299;28;20484;-74
2023/01/07 03:01:26;;;;;;;34.95;23.05;;;9.90;99.90;;;;;;5031575;28;20049;-75
2023/01/07 03:04:00;;;;;;;29.77;20.42;;;9.80;99.90;;;;;;5033294;28;20049;-75
2023/01/07 03:06:50;;;;;;;32.10;21.23;;;10.00;99.90;;;;;;5034694;28;20068;-75
2023/01/07 03:09:51;;;;;;;26.60;19.48;;;9.90;99.90;;;;;;5036204;28;20052;-75
2023/01/07 03:12:26;;;;;;;30.00;19.45;;;9.90;99.90;;;;;;5028993;28;20472;-74
2023/01/07 03:15:13;;;;;;;28.17;19.75;;;10.00;99.90;;;;;;5033819;28;20084;-75
2023/01/07 03:18:12;;;;;;;25.42;18.20;;;9.90;99.90;;;;;;5035856;28;20048;-75
2023/01/07 03:20:40;;;;;;;30.20;18.63;;;10.00;99.90;;;;;;5020625;28;20199;-75
2023/01/07 03:23:10;;;;;;;32.85;21.42;;;9.90;99.90;;;;;;5025743;28;20045;-76
2023/01/07 03:25:42;;;;;;;28.38;19.65;;;9.90;99.90;;;;;;5032151;28;20444;-75
2023/01/07 03:28:11;;;;;;;24.60;16.93;;;10.00;99.90;;;;;;5031668;28;20057;-75
2023/01/07 03:30:37;;;;;;;26.27;18.88;;;9.80;99.90;;;;;;5027777;28;20085;-74
2023/01/07 03:33:26;;;;;;;29.23;19.95;;;9.90;99.90;;;;;;5030837;28;20087;-74
2023/01/07 03:35:54;;;;;;;26.95;18.17;;;9.90;99.90;;;;;;5032924;28;20056;-74
2023/01/07 03:38:21;;;;;;;28.65;19.77;;;9.90;99.90;;;;;;5032019;28;20050;-74
2023/01/07 03:40:48;;;;;;;28.48;19.83;;;10.00;99.90;;;;;;5035272;28;20328;-74
2023/01/07 03:43:17;;;;;;;23.80;18.20;;;9.90;99.90;;;;;;5029294;28;20176;-75
2023/01/07 03:45:44;;;;;;;24.00;18.35;;;10.00;99.90;;;;;;5030788;28;20045;-74
2023/01/07 03:48:10;;;;;;;27.75;19.77;;;9.90;99.90;;;;;;5030990;28;20042;-74
2023/01/07 03:50:35;;;;;;;26.83;18.85;;;10.00;99.90;;;;;;5031447;28;20092;-74
2023/01/07 03:53:01;;;;;;;26.80;18.35;;;9.80;99.90;;;;;;5032811;28;20440;-74
2023/01/07 03:55:27;;;;;;;22.88;18.10;;;9.90;99.90;;;;;;5028612;28;20103;-73
2023/01/07 03:57:52;;;;;;;23.58;16.90;;;9.80;99.90;;;;;;5028707;28;20041;-73
2023/01/07 04:00:18;;;;;;;23.58;17.25;;;9.80;99.90;;;;;;5033283;28;20132;-74
2023/01/07 04:02:44;;;;;;;25.50;18.67;;;9.90;99.90;;;;;;5032698;28;20033;-74
2023/01/07 04:05:10;;;;;;;23.02;16.23;;;9.90;99.90;;;;;;5028246;28;20441;-75
2023/01/07 04:07:36;;;;;;;25.70;18.08;;;9.80;99.90;;;;;;5030807;28;20084;-73
2023/01/07 04:10:03;;;;;;;24.63;18.52;;;9.80;99.90;;;;;;5033229;28;20057;-73
2023/01/07 04:12:28;;;;;;;24.65;17.75;;;9.80;99.90;;;;;;5031091;28;20459;-74
2023/01/07 04:14:54;;;;;;;25.00;17.42;;;9.80;99.90;;;;;;5031136;28;20033;-74
2023/01/07 04:17:19;;;;;;;27.33;19.35;;;9.90;99.90;;;;;;5029225;28;20041;-75
2023/01/07 04:19:45;;;;;;;26.67;18.73;;;9.80;99.90;;;;;;5033756;28;20077;-74
2023/01/07 04:22:11;;;;;;;26.27;16.55;;;9.70;99.90;;;;;;5031484;28;20038;-74
2023/01/07 04:24:36;;;;;;;22.67;18.15;;;9.80;99.90;;;;;;5030403;28;20462;-75
2023/01/07 04:27:02;;;;;;;25.05;17.02;;;9.80;99.90;;;;;;5036157;28;20041;-74
2023/01/07 04:29:29;;;;;;;28.42;18.48;;;9.70;99.90;;;;;;5029960;28;20045;-74
2023/01/07 04:31:55;;;;;;;26.13;18.67;;;9.70;99.90;;;;;;5029065;28;20773;-75
2023/01/07 04:34:21;;;;;;;24.00;17.70;;;9.80;99.90;;;;;;5025028;28;20045;-74
2023/01/07 04:36:48;;;;;;;24.58;18.90;;;9.80;99.90;;;;;;5029764;28;20048;-75
2023/01/07 04:39:14;;;;;;;27.20;18.92;;;9.90;99.90;;;;;;5022872;28;20064;-73
2023/01/07 04:41:40;;;;;;;26.27;19.27;;;9.80;99.90;;;;;;5045752;28;20041;-74
2023/01/07 04:44:05;;;;;;;24.50;18.08;;;9.90;99.90;;;;;;5027379;28;20051;-74
2023/01/07 04:46:31;;;;;;;24.92;18.70;;;10.00;99.90;;;;;;5032387;28;20419;-74
2023/01/07 04:48:57;;;;;;;26.02;18.80;;;10.00;99.90;;;;;;5031607;28;20413;-74
2023/01/07 04:51:22;;;;;;;23.67;17.40;;;9.90;99.90;;;;;;5027983;28;20504;-74
2023/01/07 04:53:48;;;;;;;23.58;18.80;;;10.00;99.90;;;;;;5032711;28;20447;-75
2023/01/07 04:56:14;;;;;;;24.48;18.92;;;9.90;99.90;;;;;;5034028;28;20045;-74
2023/01/07 04:58:40;;;;;;;23.63;17.42;;;10.00;99.90;;;;;;5035024;28;20041;-74
2023/01/07 05:01:05;;;;;;;24.67;17.85;;;10.10;99.90;;;;;;5029676;28;20053;-74
2023/01/07 05:03:35;;;;;;;25.02;17.83;;;10.10;99.90;;;;;;5033379;28;20424;-74
2023/01/07 05:06:00;;;;;;;22.02;16.40;;;10.10;99.90;;;;;;5026109;28;20149;-74
2023/01/07 05:08:26;;;;;;;24.27;17.92;;;10.10;99.90;;;;;;5028703;28;20134;-74
2023/01/07 05:10:52;;;;;;;23.42;17.23;;;10.10;99.90;;;;;;5026554;28;20076;-75
2023/01/07 05:13:21;;;;;;;21.80;16.63;;;10.00;99.90;;;;;;5029866;28;20434;-75
2023/01/07 05:15:47;;;;;;;22.80;15.60;;;10.10;99.90;;;;;;5030142;28;20468;-74
2023/01/07 05:18:13;;;;;;;22.77;16.52;;;10.00;99.90;;;;;;5030600;28;20048;-74
2023/01/07 05:20:39;;;;;;;23.73;15.30;;;10.00;99.90;;;;;;5030726;28;20120;-75
2023/01/07 05:23:05;;;;;;;25.38;15.35;;;10.00;99.90;;;;;;5034209;28;20136;-74
2023/01/07 05:25:34;;;;;;;18.98;15.10;;;9.90;99.90;;;;;;5027772;28;21422;-74
2023/01/07 05:28:01;;;;;;;22.85;15.52;;;9.90;99.90;;;;;;5041322;28;20511;-74
2023/01/07 05:30:27;;;;;;;19.83;15.38;;;9.90;99.90;;;;;;5033292;28;20057;-75
2023/01/07 05:32:52;;;;;;;23.42;15.77;;;9.80;99.90;;;;;;5029129;28;20042;-75
2023/01/07 05:35:18;;;;;;;21.50;16.08;;;9.80;99.90;;;;;;5028233;28;20052;-74
2023/01/07 05:37:44;;;;;;;24.33;16.33;;;9.90;99.90;;;;;;5028860;28;21189;-75
2023/01/07 05:40:11;;;;;;;26.08;16.58;;;9.90;99.90;;;;;;5030159;28;20048;-74
2023/01/07 05:42:37;;;;;;;21.80;15.52;;;9.80;99.90;;;;;;5011455;28;20033;-74
2023/01/07 05:45:03;;;;;;;23.55;15.77;;;9.70;99.90;;;;;;5024140;28;20073;-74
2023/01/07 05:47:29;;;;;;;23.92;16.13;;;9.80;99.90;;;;;;5025762;28;20076;-74
2023/01/07 05:49:54;;;;;;;24.05;15.43;;;9.90;99.90;;;;;;5016066;28;20056;-75
2023/01/07 05:52:20;;;;;;;20.92;14.60;;;9.80;99.90;;;;;;5032258;28;20048;-74
2023/01/07 05:54:46;;;;;;;23.92;17.20;;;9.90;99.90;;;;;;5031184;28;20033;-74
2023/01/07 05:57:11;;;;;;;24.27;15.77;;;9.80;99.90;;;;;;5033909;28;20095;-74
2023/01/07 05:59:37;;;;;;;24.35;15.95;;;9.80;99.90;;;;;;5036227;28;20685;-74
2023/01/07 06:02:03;;;;;;;23.58;15.80;;;9.90;99.90;;;;;;5035045;28;20042;-74
2023/01/07 06:04:29;;;;;;;22.10;15.90;;;9.80;99.90;;;;;;5035886;28;20041;-74
2023/01/07 06:06:55;;;;;;;19.27;14.68;;;9.80;99.90;;;;;;5032216;28;20060;-75
2023/01/07 06:09:21;;;;;;;23.73;17.05;;;9.90;99.90;;;;;;5030253;28;20057;-75
2023/01/07 06:11:47;;;;;;;19.52;15.73;;;9.90;99.90;;;;;;5035618;28;20087;-75
2023/01/07 06:14:13;;;;;;;25.60;15.85;;;9.90;99.90;;;;;;5032517;28;20045;-75
2023/01/07 06:16:38;;;;;;;23.40;16.33;;;9.70;99.90;;;;;;5033517;28;20399;-75
2023/01/07 06:19:04;;;;;;;20.48;15.60;;;9.80;99.90;;;;;;5030817;28;20041;-75
2023/01/07 06:21:30;;;;;;;22.85;16.20;;;9.70;99.90;;;;;;5033264;28;20534;-75
2023/01/07 06:23:55;;;;;;;24.25;16.98;;;9.70;99.90;;;;;;5034761;28;20049;-74
2023/01/07 06:26:21;;;;;;;23.25;16.77;;;9.70;99.90;;;;;;5036908;28;20084;-74
2023/01/07 06:28:47;;;;;;;22.92;16.95;;;9.60;99.90;;;;;;5025171;28;20296;-74
2023/01/07 06:31:13;;;;;;;22.05;15.55;;;9.60;99.90;;;;;;5032833;28;20230;-74
2023/01/07 06:33:39;;;;;;;24.35;15.55;;;9.70;99.90;;;;;;5033218;28;21085;-74
2023/01/07 06:36:06;;;;;;;26.98;16.83;;;9.60;99.90;;;;;;5034736;28;20381;-74
2023/01/07 06:38:31;;;;;;;17.83;13.02;;;9.70;99.90;;;;;;5037085;28;20049;-75
2023/01/07 06:40:57;;;;;;;21.38;14.65;;;9.50;99.90;;;;;;5033273;28;20052;-75
2023/01/07 06:43:24;;;;;;;25.58;16.27;;;9.70;99.90;;;;;;5031000;28;20053;-74
2023/01/07 06:45:49;;;;;;;20.60;14.40;;;9.50;99.90;;;;;;5027626;28;20102;-75
2023/01/07 06:48:16;;;;;;;23.58;15.75;;;9.50;99.90;;;;;;5031106;28;20412;-75
2023/01/07 06:50:43;;;;;;;18.50;13.52;;;9.50;99.90;;;;;;5030626;28;20046;-75
2023/01/07 06:53:09;;;;;;;19.63;14.77;;;9.50;99.90;;;;;;5028937;28;20168;-75
2023/01/07 06:55:35;;;;;;;20.40;14.98;;;9.50;99.90;;;;;;5033998;28;20136;-75
2023/01/07 06:58:00;;;;;;;18.92;14.18;;;9.50;99.90;;;;;;5031996;28;20045;-75
2023/01/07 07:00:26;;;;;;;22.80;14.93;;;9.60;99.90;;;;;;5030234;28;20045;-74
2023/01/07 07:02:51;;;;;;;23.23;14.35;;;9.50;99.90;;;;;;5031241;28;20044;-73
2023/01/07 07:05:17;;;;;;;21.48;15.15;;;9.50;99.90;;;;;;5031258;28;20136;-74
2023/01/07 07:07:43;;;;;;;22.73;15.57;;;9.50;99.90;;;;;;5033140;28;20058;-74
2023/01/07 07:10:09;;;;;;;22.00;14.88;;;9.50;99.90;;;;;;5026034;28;20054;-75
2023/01/07 07:12:36;;;;;;;21.73;14.77;;;9.50;99.90;;;;;;5029890;28;20128;-75
2023/01/07 07:15:06;;;;;;;19.90;14.43;;;9.50;99.90;;;;;;5032801;28;20037;-75
2023/01/07 07:17:32;;;;;;;26.15;15.23;;;9.50;99.90;;;;;;5036128;28;20049;-76
2023/01/07 07:19:57;;;;;;;23.40;15.15;;;9.60;99.90;;;;;;5032614;28;20530;-76
2023/01/07 07:22:23;;;;;;;20.10;14.00;;;9.50;99.90;;;;;;5031681;28;20044;-76
2023/01/07 07:24:49;;;;;;;19.98;13.30;;;9.50;99.90;;;;;;5026145;28;20049;-75
2023/01/07 07:27:14;;;;;;;17.65;13.05;;;9.50;99.90;;;;;;5035772;28;20140;-75
2023/01/07 07:29:40;;;;;;;24.73;15.80;;;9.60;99.90;;;;;;5028323;28;20069;-74
2023/01/07 07:32:06;;;;;;;18.63;13.90;;;9.40;99.90;;;;;;5029834;28;20045;-75
2023/01/07 07:34:31;;;;;;;21.17;13.82;;;9.50;99.90;;;;;;5031753;28;20065;-75
2023/01/07 07:36:57;;;;;;;21.98;13.18;;;9.50;99.90;;;;;;5031924;28;20041;-75
2023/01/07 07:39:23;;;;;;;20.05;13.00;;;9.40;99.90;;;;;;5032067;28;20226;-75
2023/01/07 07:41:48;;;;;;;24.60;14.77;;;9.40;99.90;;;;;;5029872;28;20037;-75
2023/01/07 07:44:14;;;;;;;20.90;13.52;;;9.50;99.90;;;;;;5031426;28;20063;-76
2023/01/07 07:46:39;;;;;;;22.02;14.40;;;9.50;99.90;;;;;;5031657;28;20053;-75
2023/01/07 07:49:05;;;;;;;17.70;13.07;;;9.40;99.90;;;;;;5029699;28;20044;-74
2023/01/07 07:51:31;;;;;;;20.67;15.32;;;9.50;99.90;;;;;;5032616;28;20049;-74
2023/01/07 07:53:57;;;;;;;22.70;12.93;;;9.30;99.90;;;;;;5033578;28;20151;-74
2023/01/07 07:56:23;;;;;;;19.10;12.27;;;9.50;99.90;;;;;;5028456;28;20176;-74
2023/01/07 07:58:48;;;;;;;17.05;11.80;;;9.50;99.90;;;;;;5037233;28;20065;-74
2023/01/07 08:01:14;;;;;;;13.00;9.65;;;9.40;99.90;;;;;;5031868;28;20539;-75
2023/01/07 08:03:40;;;;;;;15.57;10.23;;;9.40;99.90;;;;;;5028768;28;20041;-73
2023/01/07 08:06:06;;;;;;;17.20;11.07;;;9.50;99.90;;;;;;5030474;28;20111;-75
2023/01/07 08:08:31;;;;;;;19.67;10.40;;;9.50;99.90;;;;;;5029613;28;20483;-75
2023/01/07 08:10:57;;;;;;;16.50;10.07;;;9.50;99.90;;;;;;5027763;28;20049;-77
2023/01/07 08:13:23;;;;;;;15.65;10.05;;;9.50;99.90;;;;;;5030548;28;20053;-76
2023/01/07 08:15:48;;;;;;;15.13;9.57;;;9.40;99.90;;;;;;5029743;28;20037;-76
2023/01/07 08:18:14;;;;;;;14.57;10.07;;;9.50;99.90;;;;;;5033359;28;20128;-76
2023/01/07 08:20:40;;;;;;;14.15;8.50;;;9.40;99.90;;;;;;5030199;28;20081;-74
2023/01/07 08:23:07;;;;;;;14.50;8.85;;;9.30;99.90;;;;;;5029121;28;20140;-75
2023/01/07 08:25:34;;;;;;;12.55;8.52;;;9.40;99.90;;;;;;5031861;28;20075;-75
2023/01/07 08:28:00;;;;;;;14.38;8.70;;;9.40;99.90;;;;;;5034810;28;20048;-76
2023/01/07 08:30:26;;;;;;;14.48;8.27;;;9.40;99.90;;;;;;5032875;28;20068;-75
2023/01/07 08:32:52;;;;;;;14.18;8.15;;;9.40;99.90;;;;;;5029252;28;20561;-75
2023/01/07 08:35:17;;;;;;;11.68;7.50;;;9.20;99.90;;;;;;5029737;28;20191;-75
2023/01/07 08:37:44;;;;;;;13.35;8.25;;;9.40;99.90;;;;;;5015442;28;20067;-76
2023/01/07 08:40:11;;;;;;;13.00;7.75;;;9.20;99.90;;;;;;5027768;28;20053;-74
2023/01/07 08:42:37;;;;;;;12.52;7.57;;;9.30;99.90;;;;;;5026972;28;20129;-74
2023/01/07 08:45:03;;;;;;;9.90;7.15;;;9.20;99.90;;;;;;5023819;28;20061;-74
2023/01/07 08:47:29;;;;;;;11.88;7.28;;;9.20;99.90;;;;;;5026671;28;20057;-75
2023/01/07 08:49:55;;;;;;;12.10;7.47;;;9.40;99.90;;;;;;5027510;28;20052;-76
2023/01/07 08:52:22;;;;;;;12.50;7.13;;;9.30;99.90;;;;;;5025915;28;20049;-76
2023/01/07 08:54:48;;;;;;;14.00;6.93;;;9.40;99.90;;;;;;5025285;28;20053;-75
2023/01/07 08:57:14;;;;;;;10.32;6.35;;;9.50;99.90;;;;;;5030470;28;20060;-75
2023/01/07 08:59:40;;;;;;;11.35;7.40;;;9.40;99.90;;;;;;5032943;28;20341;-76
2023/01/07 09:02:13;;;;;;;9.88;6.82;;;9.40;99.90;;;;;;5047152;28;20501;-76
2023/01/07 09:04:39;;;;;;;14.70;6.93;;;9.40;99.90;;;;;;5029249;28;20148;-76
2023/01/07 09:07:05;;;;;;;11.77;7.30;;;9.40;99.90;;;;;;5027959;28;20431;-76
2023/01/07 09:09:30;;;;;;;8.68;5.95;;;9.30;99.90;;;;;;5022270;28;20053;-75
2023/01/07 09:11:56;;;;;;;11.77;6.03;;;9.40;99.90;;;;;;5035022;28;20037;-76
2023/01/07 09:14:23;;;;;;;8.18;4.95;;;9.40;99.90;;;;;;5022633;28;20045;-76
2023/01/07 09:16:48;;;;;;;12.10;5.85;;;9.40;99.90;;;;;;5032698;28;20050;-75
2023/01/07 09:19:14;;;;;;;10.07;5.63;;;9.40;99.90;;;;;;5023168;28;20421;-75
2023/01/07 09:21:40;;;;;;;11.52;5.60;;;9.30;99.90;;;;;;5032770;28;20524;-74
2023/01/07 09:24:06;;;;;;;7.10;4.95;;;9.40;99.90;;;;;;5027652;28;20479;-75
2023/01/07 09:26:31;;;;;;;9.65;4.93;;;9.40;99.90;;;;;;5029908;28;20060;-75
2023/01/07 09:28:57;;;;;;;10.35;6.22;;;9.40;99.90;;;;;;5036181;28;20503;-75
2023/01/07 09:31:23;;;;;;;8.10;5.32;;;9.40;99.90;;;;;;5036316;28;20041;-75
2023/01/07 09:33:48;;;;;;;6.18;4.30;;;9.50;99.90;;;;;;5032465;28;20513;-76
2023/01/07 09:36:14;;;;;;;8.50;4.60;;;9.50;99.90;;;;;;5038238;28;20045;-75
2023/01/07 09:38:40;;;;;;;6.18;4.07;;;9.50;99.90;;;;;;5038727;28;20041;-76
2023/01/07 09:41:24;;;;;;;7.78;3.83;;;9.60;99.90;;;;;;5032456;28;20493;-76
2023/01/07 09:43:55;;;;;;;8.50;4.90;;;9.50;99.90;;;;;;5031481;28;20037;-74
2023/01/07 09:46:21;;;;;;;8.35;4.00;;;9.50;99.90;;;;;;5027297;28;22305;-75
2023/01/07 09:48:56;;;;;;;6.03;3.55;;;9.60;99.90;;;;;;5030983;28;21405;-74
2023/01/07 09:51:27;;;;;;;8.00;3.92;;;9.50;99.90;;;;;;5030798;28;20033;-73
2023/01/07 09:53:58;;;;;;;6.03;3.80;;;9.50;99.90;;;;;;5035749;28;20045;-74
2023/01/07 09:56:26;;;;;;;5.80;3.72;;;9.50;99.90;;;;;;5034371;28;20041;-76
2023/01/07 09:58:53;;;;;;;5.65;3.75;;;9.50;99.90;;;;;;5033190;28;20053;-75
2023/01/07 10:01:40;;;;;;;6.43;3.83;;;9.60;99.90;;;;;;5033492;28;20069;-74
2023/01/07 10:04:31;;;;;;;6.43;3.63;;;9.60;99.90;;;;;;5034875;28;20392;-75
2023/01/07 10:06:57;;;;;;;4.57;3.08;;;9.60;99.90;;;;;;5035781;28;20117;-76
2023/01/07 10:09:55;;;;;;;5.28;2.95;;;9.70;99.90;;;;;;5031261;28;20404;-73
2023/01/07 10:12:37;;;;;;;4.18;3.00;;;9.80;99.90;;;;;;5030732;28;20663;-76
2023/01/07 10:15:40;;;;;;;6.85;2.85;;;9.80;99.90;;;;;;5029457;28;20091;-74
2023/01/07 10:18:11;;;;;;;4.43;2.90;;;9.80;99.90;;;;;;5031547;28;20053;-74
2023/01/07 10:21:00;;;;;;;8.30;2.83;;;9.80;99.90;;;;;;5030081;28;20142;-74
2023/01/07 10:23:30;;;;;;;5.45;2.72;;;9.80;99.90;;;;;;5038190;28;20103;-75
2023/01/07 10:26:00;;;;;;;4.70;2.58;;;9.90;99.90;;;;;;5035313;28;20045;-74
2023/01/07 10:28:39;;;;;;;5.22;3.20;;;9.90;99.90;;;;;;5041965;28;20270;-73
2023/01/07 10:31:08;;;;;;;5.85;2.70;;;9.90;99.90;;;;;;5041067;28;20037;-73
2023/01/07 10:33:34;;;;;;;4.35;2.80;;;10.00;99.90;;;;;;5027839;28;20516;-74
2023/01/07 10:36:21;;;;;;;4.95;2.70;;;9.90;99.90;;;;;;5036225;28;20048;-74
2023/01/07 10:39:09;;;;;;;6.25;2.50;;;10.00;99.90;;;;;;5032746;28;20056;-74
2023/01/07 10:42:12;;;;;;;8.75;2.42;;;10.10;99.90;;;;;;5041909;28;20079;-73
2023/01/07 10:44:53;;;;;;;3.70;2.13;;;10.00;99.90;;;;;;5035156;28;20057;-74
2023/01/07 10:47:43;;;;;;;5.28;2.67;;;10.10;99.90;;;;;;5029602;28;20128;-74
2023/01/07 10:50:46;;;;;;;5.40;2.45;;;10.00;99.90;;;;;;5027292;28;20044;-74
2023/01/07 10:53:44;;;;;;;4.15;2.35;;;10.10;99.90;;;;;;5034714;28;20044;-72
2023/01/07 10:56:17;;;;;;;3.10;2.17;;;10.00;99.90;;;;;;5013016;28;20048;-73
2023/01/07 10:58:46;;;;;;;2.90;2.08;;;10.10;99.90;;;;;;5030681;28;20493;-73
2023/01/07 11:01:21;;;;;;;5.38;3.83;;;10.10;99.90;;;;;;5035251;28;21218;-73
2023/01/07 11:03:52;;;;;;;4.25;2.45;;;10.20;99.90;;;;;;5030488;28;20041;-73
2023/01/07 11:06:41;;;;;;;4.60;2.00;;;10.30;99.90;;;;;;5030175;28;20057;-73
2023/01/07 11:09:14;;;;;;;3.05;1.90;;;10.30;99.90;;;;;;5033709;28;20073;-73
2023/01/07 11:11:41;;;;;;;4.03;2.00;;;10.30;99.90;;;;;;5039012;28;20652;-73
2023/01/07 11:14:22;;;;;;;5.05;1.98;;;10.40;99.90;;;;;;5032201;28;20045;-74
2023/01/07 11:17:14;;;;;;;7.38;2.30;;;10.40;99.90;;;;;;5032621;28;20052;-73
2023/01/07 11:19:43;;;;;;;2.92;1.90;;;10.50;99.90;;;;;;5042165;28;20049;-72
2023/01/07 11:22:29;;;;;;;5.88;2.00;;;10.50;99.90;;;;;;5032740;28;20053;-73
2023/01/07 11:24:59;;;;;;;3.05;2.00;;;10.50;99.90;;;;;;5020771;28;20044;-74
2023/01/07 11:27:32;;;;;;;4.38;2.00;;;10.50;99.90;;;;;;5030702;28;20064;-75
2023/01/07 11:30:00;;;;;;;2.85;1.40;;;10.60;99.90;;;;;;5030803;28;20267;-74
2023/01/07 11:32:30;;;;;;;4.78;1.73;;;10.60;99.90;;;;;;5012825;28;20107;-73
2023/01/07 11:35:02;;;;;;;4.03;1.40;;;10.60;99.90;;;;;;5005302;28;20052;-74
2023/01/07 11:37:37;;;;;;;4.53;1.92;;;10.60;99.90;;;;;;5030403;28;20041;-74
2023/01/07 11:40:12;;;;;;;2.00;1.30;;;10.70;99.90;;;;;;5027577;28;20640;-75
2023/01/07 11:42:56;;;;;;;2.53;1.50;;;10.70;99.90;;;;;;5027376;28;20046;-75
2023/01/07 11:45:26;;;;;;;3.17;1.35;;;10.60;99.90;;;;;;5044073;28;20472;-75
2023/01/07 11:48:31;;;;;;;2.58;1.48;;;10.70;99.90;;;;;;5017616;28;20125;-74
2023/01/07 11:51:09;;;;;;;2.60;1.25;;;10.60;99.90;;;;;;5018343;28;20529;-74
2023/01/07 11:53:37;;;;;;;3.10;1.50;;;10.60;99.90;;;;;;5035243;28;20037;-73
2023/01/07 11:56:07;;;;;;;3.33;1.30;;;10.60;99.90;;;;;;5031407;28;20041;-73
2023/01/07 11:58:34;;;;;;;3.45;1.60;;;10.60;99.90;;;;;;5030185;28;20053;-75
2023/01/07 12:01:16;;;;;;;3.20;1.42;;;10.60;99.90;;;;;;5032097;28;20511;-75
2023/01/07 12:04:23;;;;;;;4.13;1.73;;;10.60;99.90;;;;;;5019477;28;20042;-74
2023/01/07 12:06:55;;;;;;;2.53;1.40;;;10.50;99.90;;;;;;5018111;28;20050;-74
2023/01/07 12:09:25;;;;;;;3.13;1.77;;;10.50;99.90;;;;;;5003711;28;20149;-74
2023/01/07 12:11:53;;;;;;;2.28;1.33;;;10.50;99.90;;;;;;5016295;28;20559;-74
2023/01/07 12:14:26;;;;;;;2.70;1.23;;;10.60;99.90;;;;;;5017794;28;20069;-74
2023/01/07 12:16:52;;;;;;;3.33;1.47;;;10.50;99.90;;;;;;5016701;28;20077;-73
2023/01/07 12:19:45;;;;;;;4.38;1.90;;;10.50;99.90;;;;;;5019388;28;20180;-75
2023/01/07 12:22:39;;;;;;;4.33;2.17;;;10.60;99.90;;;;;;5011632;28;20049;-75
2023/01/07 12:25:34;;;;;;;3.72;1.80;;;10.60;99.90;;;;;;5004972;28;20058;-76
2023/01/07 12:28:10;;;;;;;3.35;1.80;;;10.70;99.90;;;;;;5019653;28;20069;-75
2023/01/07 12:30:54;;;;;;;5.40;2.55;;;10.70;99.90;;;;;;5016458;28;20579;-76
2023/01/07 12:33:25;;;;;;;4.28;2.47;;;10.70;99.90;;;;;;5017846;28;20500;-75
2023/01/07 12:35:52;;;;;;;5.95;2.22;;;10.70;99.90;;;;;;5020857;28;20044;-74
2023/01/07 12:38:38;;;;;;;3.20;1.88;;;10.70;99.90;;;;;;5025683;28;20489;-75
2023/01/07 12:41:10;;;;;;;5.10;2.50;;;10.70;99.90;;;;;;5040462;28;20050;-74
2023/01/07 12:43:46;;;;;;;2.97;1.88;;;10.70;99.90;;;;;;5035448;28;20579;-75
2023/01/07 12:46:16;;;;;;;2.72;1.33;;;10.80;99.90;;;;;;5033934;28;20041;-75
2023/01/07 12:48:54;;;;;;;2.50;1.50;;;10.70;99.90;;;;;;5033160;28;20045;-75
2023/01/07 12:51:25;;;;;;;3.47;1.65;;;10.80;99.90;;;;;;5034474;28;20092;-75
2023/01/07 12:53:56;;;;;;;1.92;1.13;;;10.70;99.90;;;;;;5041412;28;20528;-74
2023/01/07 12:56:38;;;;;;;4.30;1.55;;;10.80;99.90;;;;;;5037610;28;20041;-75
2023/01/07 12:59:21;;;;;;;3.45;1.30;;;10.80;99.90;;;;;;5033410;28;20080;-75